Time;durP1;ratioP1;P1;durP2;ratioP2;P2;SDS_P1;SDS_P2;PMS_P1;PMS_P2;Temp;Humidity;BMP_temperature;BMP_pressure;BME280_temperature;BME280_humidity;BME280_pressure;Samples;Min_cycle;Max_cycle;Signal;HPM_P1;HPM_P2
2023/07/10 00:01:59;;;;;;;7.30;2.72;;;;;;;;;;5100386;27;20474;-44
2023/07/10 00:04:24;;;;;;;6.80;2.95;;;;;;;;;;5105046;28;20068;-44
2023/07/10 00:06:50;;;;;;;5.50;2.93;;;;;;;;;;5103976;27;20037;-43
2023/07/10 00:09:15;;;;;;;7.80;2.73;;;;;;;;;;5099098;28;20310;-46
2023/07/10 00:11:41;;;;;;;9.00;3.10;;;;;;;;;;5104780;28;20072;-44
2023/07/10 00:14:15;;;;;;;5.60;3.08;;;;;;;;;;5107341;28;20665;-43
2023/07/10 00:16:40;;;;;;;9.70;3.30;;;;;;;;;;5095564;27;20084;-43
2023/07/10 00:19:10;;;;;;;5.43;3.20;;;;;;;;;;5106100;27;20032;-44
2023/07/10 00:21:35;;;;;;;6.07;2.67;;;;;;;;;;5101949;28;20128;-45
2023/07/10 00:24:01;;;;;;;9.03;3.20;;;;;;;;;;5103060;28;20520;-43
2023/07/10 00:26:26;;;;;;;5.87;3.33;;;;;;;;;;5104646;27;20027;-44
2023/07/10 00:28:52;;;;;;;7.85;3.38;;;;;;;;;;5102453;27;20068;-43
2023/07/10 00:31:18;;;;;;;16.02;3.40;;;;;;;;;;5092754;28;20023;-43
2023/07/10 00:33:47;;;;;;;6.50;3.20;;;;;;;;;;5096399;27;20026;-45
2023/07/10 00:36:42;;;;;;;5.80;2.30;;;;;;;;;;5099167;28;20513;-43
2023/07/10 00:39:19;;;;;;;6.78;2.75;;;;;;;;;;5095691;27;20044;-43
2023/07/10 00:41:46;;;;;;;6.53;3.55;;;;;;;;;;5096433;28;20099;-43
2023/07/10 00:44:12;;;;;;;7.13;3.20;;;;;;;;;;5102279;27;20038;-43
2023/07/10 00:46:44;;;;;;;5.25;3.03;;;;;;;;;;5095314;28;20664;-43
2023/07/10 00:49:17;;;;;;;7.15;3.70;;;;;;;;;;5097693;28;20019;-44
2023/07/10 00:51:47;;;;;;;7.38;3.45;;;;;;;;;;5102002;28;20087;-43
2023/07/10 00:54:19;;;;;;;9.00;3.60;;;;;;;;;;5104365;28;20024;-44
2023/07/10 00:56:45;;;;;;;8.02;3.80;;;;;;;;;;5090706;28;20015;-44
2023/07/10 00:59:19;;;;;;;5.95;3.13;;;;;;;;;;5106203;27;20030;-43
2023/07/10 01:02:03;;;;;;;7.53;3.60;;;;;;;;;;5100528;28;20023;-43
2023/07/10 01:04:29;;;;;;;6.00;3.10;;;;;;;;;;5091258;28;20020;-44
2023/07/10 01:06:54;;;;;;;6.40;3.77;;;;;;;;;;5099189;28;20421;-44
2023/07/10 01:09:19;;;;;;;7.97;3.70;;;;;;;;;;5103361;28;20048;-44
2023/07/10 01:11:46;;;;;;;6.75;3.38;;;;;;;;;;5095946;28;20043;-43
2023/07/10 01:14:12;;;;;;;11.82;3.67;;;;;;;;;;5090116;28;20057;-44
2023/07/10 01:16:38;;;;;;;4.68;3.05;;;;;;;;;;5096121;28;20099;-44
2023/07/10 01:19:03;;;;;;;20.17;3.83;;;;;;;;;;5099362;28;20453;-43
2023/07/10 01:21:30;;;;;;;12.15;6.45;;;;;;;;;;5101416;28;20019;-43
2023/07/10 01:23:56;;;;;;;12.07;5.03;;;;;;;;;;5094877;28;20020;-44
2023/07/10 01:26:22;;;;;;;12.50;3.40;;;;;;;;;;5104033;28;20027;-44
2023/07/10 01:28:47;;;;;;;6.43;3.20;;;;;;;;;;5091456;28;20034;-43
2023/07/10 01:31:14;;;;;;;7.85;4.22;;;;;;;;;;5099362;28;20020;-44
2023/07/10 01:34:09;;;;;;;10.80;3.65;;;;;;;;;;5094681;28;20045;-43
2023/07/10 01:36:35;;;;;;;7.95;3.47;;;;;;;;;;5083099;28;20028;-44
2023/07/10 01:39:10;;;;;;;9.88;3.47;;;;;;;;;;5095954;27;20028;-44
2023/07/10 01:41:37;;;;;;;5.32;3.42;;;;;;;;;;5099060;28;20823;-45
2023/07/10 01:44:22;;;;;;;8.57;3.95;;;;;;;;;;5102190;28;20016;-44
2023/07/10 01:46:49;;;;;;;9.63;3.30;;;;;;;;;;5092109;28;20042;-44
2023/07/10 01:49:16;;;;;;;11.38;3.30;;;;;;;;;;5103341;28;20024;-44
2023/07/10 01:51:41;;;;;;;6.85;3.20;;;;;;;;;;5097186;28;20028;-44
2023/07/10 01:54:10;;;;;;;7.97;3.72;;;;;;;;;;5104175;28;20393;-43
2023/07/10 01:56:35;;;;;;;7.10;3.17;;;;;;;;;;5101667;28;20023;-46
2023/07/10 01:59:01;;;;;;;6.47;3.33;;;;;;;;;;5101269;28;20363;-45
2023/07/10 02:01:26;;;;;;;7.63;3.53;;;;;;;;;;5099604;28;20314;-45
2023/07/10 02:03:51;;;;;;;6.57;3.50;;;;;;;;;;5094395;28;20489;-44
2023/07/10 02:06:17;;;;;;;7.68;3.58;;;;;;;;;;5100041;28;20266;-45
2023/07/10 02:08:42;;;;;;;5.57;3.00;;;;;;;;;;5095393;28;20023;-44
2023/07/10 02:11:07;;;;;;;8.23;3.77;;;;;;;;;;5103974;28;20360;-43
2023/07/10 02:13:32;;;;;;;5.23;3.27;;;;;;;;;;5096886;28;20016;-44
2023/07/10 02:16:00;;;;;;;9.43;3.20;;;;;;;;;;5094520;27;20577;-45
2023/07/10 02:18:26;;;;;;;10.90;3.28;;;;;;;;;;5104990;28;20673;-44
2023/07/10 02:20:53;;;;;;;6.43;3.25;;;;;;;;;;5096016;27;20054;-43
2023/07/10 02:23:19;;;;;;;9.70;3.42;;;;;;;;;;5092513;27;20066;-44
2023/07/10 02:25:44;;;;;;;6.90;3.20;;;;;;;;;;5101897;27;20051;-43
2023/07/10 02:28:09;;;;;;;5.43;3.07;;;;;;;;;;5107634;27;20015;-43
2023/07/10 02:30:36;;;;;;;5.77;3.30;;;;;;;;;;5099788;27;20627;-45
2023/07/10 02:33:02;;;;;;;7.47;3.72;;;;;;;;;;5095056;28;20036;-43
2023/07/10 02:35:27;;;;;;;8.13;3.40;;;;;;;;;;5106449;27;20081;-43
2023/07/10 02:37:52;;;;;;;5.30;3.73;;;;;;;;;;5102544;27;20775;-44
2023/07/10 02:40:17;;;;;;;10.37;3.33;;;;;;;;;;5096161;27;20076;-45
2023/07/10 02:42:43;;;;;;;8.33;3.00;;;;;;;;;;5098840;28;20028;-44
2023/07/10 02:45:09;;;;;;;8.35;3.25;;;;;;;;;;5093186;27;20604;-44
2023/07/10 02:47:34;;;;;;;7.60;3.65;;;;;;;;;;5103235;27;20076;-43
2023/07/10 02:49:59;;;;;;;9.10;3.73;;;;;;;;;;5103458;27;20431;-44
2023/07/10 02:52:24;;;;;;;8.90;3.27;;;;;;;;;;5105405;27;20024;-43
2023/07/10 02:54:50;;;;;;;6.93;4.03;;;;;;;;;;5102375;28;20020;-44
2023/07/10 02:57:15;;;;;;;8.13;3.60;;;;;;;;;;5103095;27;20291;-44
2023/07/10 02:59:40;;;;;;;8.33;3.73;;;;;;;;;;5101240;28;20038;-44
2023/07/10 03:02:05;;;;;;;8.18;3.05;;;;;;;;;;5095169;27;20485;-44
2023/07/10 03:04:31;;;;;;;7.13;3.17;;;;;;;;;;5103526;28;20656;-43
2023/07/10 03:06:56;;;;;;;6.57;3.60;;;;;;;;;;5102798;27;20042;-45
2023/07/10 03:09:21;;;;;;;5.80;3.83;;;;;;;;;;5084816;27;20292;-43
2023/07/10 03:11:47;;;;;;;9.63;3.88;;;;;;;;;;5095203;27;20020;-43
2023/07/10 03:14:12;;;;;;;6.93;3.73;;;;;;;;;;5093460;28;20028;-45
2023/07/10 03:16:37;;;;;;;7.10;3.60;;;;;;;;;;5103261;27;20019;-43
2023/07/10 03:19:02;;;;;;;8.17;3.87;;;;;;;;;;5099139;28;20450;-44
2023/07/10 03:21:28;;;;;;;7.93;3.80;;;;;;;;;;5106202;27;20284;-43
2023/07/10 03:23:53;;;;;;;8.23;3.80;;;;;;;;;;5099527;28;20382;-44
2023/07/10 03:26:18;;;;;;;8.17;4.43;;;;;;;;;;5102772;28;20036;-44
2023/07/10 03:28:44;;;;;;;7.32;3.85;;;;;;;;;;5095803;28;20019;-43
2023/07/10 03:31:09;;;;;;;6.90;3.58;;;;;;;;;;5092590;28;20070;-44
2023/07/10 03:33:34;;;;;;;7.65;3.60;;;;;;;;;;5102840;27;20054;-44
2023/07/10 03:36:01;;;;;;;5.90;3.57;;;;;;;;;;5101026;28;20024;-44
2023/07/10 03:38:26;;;;;;;6.82;3.72;;;;;;;;;;5105051;28;20107;-43
2023/07/10 03:40:52;;;;;;;7.40;4.13;;;;;;;;;;5103258;28;20546;-43
2023/07/10 03:43:17;;;;;;;8.65;4.30;;;;;;;;;;5101878;27;20022;-45
2023/07/10 03:45:42;;;;;;;8.23;4.03;;;;;;;;;;5101549;27;20024;-43
2023/07/10 03:48:08;;;;;;;8.10;4.23;;;;;;;;;;5094400;28;20793;-44
2023/07/10 03:50:36;;;;;;;6.80;3.23;;;;;;;;;;5100286;28;20023;-43
2023/07/10 03:53:01;;;;;;;8.63;4.80;;;;;;;;;;5097817;28;20028;-43
2023/07/10 03:55:27;;;;;;;7.07;3.47;;;;;;;;;;5090161;27;20027;-44
2023/07/10 03:57:52;;;;;;;5.43;3.23;;;;;;;;;;5104733;28;20455;-44
2023/07/10 04:00:17;;;;;;;9.30;4.00;;;;;;;;;;5094445;27;20281;-43
2023/07/10 04:02:42;;;;;;;8.13;4.07;;;;;;;;;;5099810;27;20076;-44
2023/07/10 04:05:08;;;;;;;8.65;4.38;;;;;;;;;;5092706;28;20270;-45
2023/07/10 04:07:33;;;;;;;10.48;3.92;;;;;;;;;;5089801;28;20481;-43
2023/07/10 04:09:58;;;;;;;8.90;3.97;;;;;;;;;;5100358;28;20556;-45
2023/07/10 04:12:24;;;;;;;9.47;4.20;;;;;;;;;;5104589;27;20028;-43
2023/07/10 04:14:49;;;;;;;7.23;4.20;;;;;;;;;;5100485;27;20058;-44
2023/07/10 04:17:15;;;;;;;16.80;8.53;;;;;;;;;;5102570;28;20101;-43
2023/07/10 04:19:40;;;;;;;12.70;4.30;;;;;;;;;;5098692;28;20028;-43
2023/07/10 04:22:05;;;;;;;7.32;3.88;;;;;;;;;;5100479;28;20050;-43
2023/07/10 04:24:31;;;;;;;10.00;3.67;;;;;;;;;;5091613;28;20019;-45
2023/07/10 04:26:56;;;;;;;7.15;3.53;;;;;;;;;;5099179;27;20030;-43
2023/07/10 04:29:21;;;;;;;10.68;3.70;;;;;;;;;;5090871;27;20024;-43
2023/07/10 04:31:47;;;;;;;6.73;3.77;;;;;;;;;;5095839;28;20019;-43
2023/07/10 04:34:12;;;;;;;6.83;3.73;;;;;;;;;;5104586;28;20276;-44
2023/07/10 04:36:37;;;;;;;7.30;4.53;;;;;;;;;;5102226;28;20799;-46
2023/07/10 04:39:02;;;;;;;10.33;3.83;;;;;;;;;;5100021;28;20280;-43
2023/07/10 04:41:28;;;;;;;9.50;4.47;;;;;;;;;;5093566;28;20023;-44
2023/07/10 04:43:53;;;;;;;6.23;4.37;;;;;;;;;;5096543;28;20289;-43
2023/07/10 04:46:19;;;;;;;8.52;3.70;;;;;;;;;;5094039;28;20054;-44
2023/07/10 04:48:44;;;;;;;12.98;4.57;;;;;;;;;;5104671;27;20020;-44
2023/07/10 04:51:10;;;;;;;7.07;4.17;;;;;;;;;;5101098;27;20027;-43
2023/07/10 04:53:36;;;;;;;6.20;3.42;;;;;;;;;;5098406;27;20273;-45
2023/07/10 04:56:03;;;;;;;17.63;10.57;;;;;;;;;;5095895;28;20027;-45
2023/07/10 04:58:31;;;;;;;10.75;5.93;;;;;;;;;;5106705;28;20031;-45
2023/07/10 05:00:57;;;;;;;7.53;4.60;;;;;;;;;;5098409;28;20731;-44
2023/07/10 05:03:23;;;;;;;7.95;4.80;;;;;;;;;;5100237;28;20109;-44
2023/07/10 05:05:52;;;;;;;8.85;4.50;;;;;;;;;;5092175;28;20031;-45
2023/07/10 05:08:17;;;;;;;9.15;5.03;;;;;;;;;;5101349;28;20142;-44
2023/07/10 05:10:43;;;;;;;27.47;15.10;;;;;;;;;;5100377;28;20131;-43
2023/07/10 05:13:08;;;;;;;14.20;8.48;;;;;;;;;;5098015;28;20032;-43
2023/07/10 05:15:33;;;;;;;10.37;6.43;;;;;;;;;;5097760;28;20378;-43
2023/07/10 05:17:58;;;;;;;15.97;6.53;;;;;;;;;;5103862;28;20028;-43
2023/07/10 05:20:24;;;;;;;13.37;5.93;;;;;;;;;;5092160;28;20043;-43
2023/07/10 05:22:49;;;;;;;18.37;8.43;;;;;;;;;;5082529;28;20105;-43
2023/07/10 05:25:14;;;;;;;8.50;4.97;;;;;;;;;;5084435;28;20027;-46
2023/07/10 05:27:39;;;;;;;15.20;5.85;;;;;;;;;;5082698;28;20057;-44
2023/07/10 05:30:05;;;;;;;7.70;4.60;;;;;;;;;;5081031;28;20028;-44
2023/07/10 05:32:30;;;;;;;7.50;4.65;;;;;;;;;;5089942;28;20108;-46
2023/07/10 05:34:56;;;;;;;7.73;4.80;;;;;;;;;;5091945;28;20036;-43
2023/07/10 05:37:21;;;;;;;11.90;5.22;;;;;;;;;;5093600;28;20028;-43
2023/07/10 05:39:46;;;;;;;19.60;5.90;;;;;;;;;;5086257;28;20023;-44
2023/07/10 05:42:12;;;;;;;19.07;8.77;;;;;;;;;;5100176;28;20262;-43
2023/07/10 05:44:37;;;;;;;12.10;5.65;;;;;;;;;;5102688;28;20027;-45
2023/07/10 05:47:03;;;;;;;9.20;4.57;;;;;;;;;;5104786;27;20023;-45
2023/07/10 05:49:28;;;;;;;12.18;6.00;;;;;;;;;;5094107;27;20020;-44
2023/07/10 05:51:53;;;;;;;20.27;7.32;;;;;;;;;;5104745;27;20436;-43
2023/07/10 05:54:21;;;;;;;20.70;6.78;;;;;;;;;;5102862;27;20024;-44
2023/07/10 05:56:47;;;;;;;29.83;15.55;;;;;;;;;;5097984;27;20034;-43
2023/07/10 05:59:13;;;;;;;16.98;5.93;;;;;;;;;;5100189;28;20024;-43
2023/07/10 06:01:38;;;;;;;12.40;4.93;;;;;;;;;;5087839;28;20031;-43
2023/07/10 06:04:03;;;;;;;13.63;5.70;;;;;;;;;;5086526;28;20028;-44
2023/07/10 06:06:29;;;;;;;8.07;4.67;;;;;;;;;;5078592;27;20277;-43
2023/07/10 06:08:54;;;;;;;10.87;5.10;;;;;;;;;;5094822;28;20325;-44
2023/07/10 06:11:19;;;;;;;9.20;5.00;;;;;;;;;;5102005;27;20020;-46
2023/07/10 06:13:44;;;;;;;7.43;4.87;;;;;;;;;;5087597;27;20109;-43
2023/07/10 06:16:11;;;;;;;8.27;4.30;;;;;;;;;;5098190;28;20080;-44
2023/07/10 06:18:36;;;;;;;13.13;5.45;;;;;;;;;;5081504;28;20016;-43
2023/07/10 06:21:01;;;;;;;14.13;6.18;;;;;;;;;;5094633;28;20080;-44
2023/07/10 06:23:27;;;;;;;19.47;5.87;;;;;;;;;;5092164;28;20078;-43
2023/07/10 06:25:53;;;;;;;8.82;5.20;;;;;;;;;;5084667;27;20108;-46
2023/07/10 06:28:18;;;;;;;8.48;5.20;;;;;;;;;;5085689;28;20020;-46
2023/07/10 06:30:46;;;;;;;9.45;4.63;;;;;;;;;;5088599;27;20076;-45
2023/07/10 06:33:11;;;;;;;9.57;5.07;;;;;;;;;;5092184;27;20077;-43
2023/07/10 06:35:36;;;;;;;6.47;4.27;;;;;;;;;;5093402;27;20111;-44
2023/07/10 06:38:02;;;;;;;12.17;4.77;;;;;;;;;;5090401;28;26383;-43
2023/07/10 06:40:27;;;;;;;7.72;3.05;;;;;;;;;;5092792;28;20062;-43
2023/07/10 06:42:52;;;;;;;9.18;4.43;;;;;;;;;;5090363;27;20031;-44
2023/07/10 06:45:17;;;;;;;7.80;4.17;;;;;;;;;;5086902;27;20457;-45
2023/07/10 06:47:44;;;;;;;6.60;4.25;;;;;;;;;;5076816;28;20031;-44
2023/07/10 06:50:10;;;;;;;7.60;4.05;;;;;;;;;;5072666;28;20032;-46
2023/07/10 06:52:37;;;;;;;12.73;4.70;;;;;;;;;;5096398;28;20023;-45
2023/07/10 06:55:02;;;;;;;8.38;4.15;;;;;;;;;;5086499;28;20577;-44
2023/07/10 06:57:28;;;;;;;8.73;4.03;;;;;;;;;;5099003;28;20102;-44
2023/07/10 06:59:53;;;;;;;11.73;4.40;;;;;;;;;;5094157;28;20096;-45
2023/07/10 07:02:18;;;;;;;13.40;4.53;;;;;;;;;;5102168;28;20022;-44
2023/07/10 07:04:43;;;;;;;8.67;5.10;;;;;;;;;;5087410;27;20032;-45
2023/07/10 07:07:09;;;;;;;9.98;5.28;;;;;;;;;;5104939;27;20093;-43
2023/07/10 07:09:34;;;;;;;17.65;5.68;;;;;;;;;;5101789;28;20035;-44
2023/07/10 07:11:59;;;;;;;11.80;5.07;;;;;;;;;;5095207;27;20043;-44
2023/07/10 07:14:25;;;;;;;14.70;4.97;;;;;;;;;;5092706;27;20285;-44
2023/07/10 07:16:50;;;;;;;13.93;4.80;;;;;;;;;;5090957;27;20019;-44
2023/07/10 07:19:15;;;;;;;10.77;4.63;;;;;;;;;;5094302;27;20028;-44
2023/07/10 07:21:41;;;;;;;7.47;5.10;;;;;;;;;;5091387;27;20043;-44
2023/07/10 07:24:06;;;;;;;12.55;5.15;;;;;;;;;;5094744;28;20028;-46
2023/07/10 07:26:31;;;;;;;11.07;4.47;;;;;;;;;;5097160;28;20015;-44
2023/07/10 07:28:56;;;;;;;15.17;5.73;;;;;;;;;;5098727;28;20027;-44
2023/07/10 07:31:22;;;;;;;10.53;5.90;;;;;;;;;;5089065;28;20039;-44
2023/07/10 07:33:48;;;;;;;8.07;4.30;;;;;;;;;;5105865;28;20139;-44
2023/07/10 07:36:13;;;;;;;12.57;4.97;;;;;;;;;;5096004;27;20745;-44
2023/07/10 07:38:38;;;;;;;9.80;6.23;;;;;;;;;;5094959;28;20537;-44
2023/07/10 07:41:05;;;;;;;11.10;4.70;;;;;;;;;;5091035;28;20082;-44
2023/07/10 07:43:30;;;;;;;6.57;4.90;;;;;;;;;;5090698;28;20055;-44
2023/07/10 07:45:56;;;;;;;9.57;5.10;;;;;;;;;;5087109;28;21324;-45
2023/07/10 07:48:22;;;;;;;11.73;6.43;;;;;;;;;;5092077;28;20277;-44
2023/07/10 07:51:01;;;;;;;14.00;7.30;;;;;;;;;;5099004;27;20020;-44
2023/07/10 07:53:27;;;;;;;10.25;5.10;;;;;;;;;;5101259;28;20024;-44
2023/07/10 07:55:52;;;;;;;12.43;5.28;;;;;;;;;;5095937;27;20027;-45
2023/07/10 07:58:18;;;;;;;9.43;5.28;;;;;;;;;;5099532;27;20023;-45
2023/07/10 08:00:43;;;;;;;11.43;5.63;;;;;;;;;;5084294;28;20041;-43
2023/07/10 08:03:09;;;;;;;9.82;4.97;;;;;;;;;;5093277;27;20134;-45
2023/07/10 08:05:35;;;;;;;9.85;4.70;;;;;;;;;;5094628;27;20021;-44
2023/07/10 08:08:00;;;;;;;11.67;5.43;;;;;;;;;;5094804;28;22170;-44
2023/07/10 08:10:26;;;;;;;11.07;5.63;;;;;;;;;;5084715;27;20266;-44
2023/07/10 08:12:52;;;;;;;11.02;5.10;;;;;;;;;;5080015;27;20257;-46
2023/07/10 08:15:17;;;;;;;7.93;4.93;;;;;;;;;;5088602;28;20024;-44
2023/07/10 08:17:42;;;;;;;9.45;5.18;;;;;;;;;;5099861;27;20023;-44
2023/07/10 08:20:08;;;;;;;11.03;4.83;;;;;;;;;;5083757;27;20035;-44
2023/07/10 08:22:33;;;;;;;8.85;6.35;;;;;;;;;;5092073;28;20035;-44
2023/07/10 08:24:58;;;;;;;9.07;6.20;;;;;;;;;;5074737;27;20018;-43
2023/07/10 08:27:24;;;;;;;9.55;5.57;;;;;;;;;;5094995;27;20039;-44
2023/07/10 08:29:49;;;;;;;9.90;6.20;;;;;;;;;;5092190;28;20012;-45
2023/07/10 08:32:15;;;;;;;8.63;5.27;;;;;;;;;;5089518;28;20153;-43
2023/07/10 08:34:40;;;;;;;7.93;5.45;;;;;;;;;;5091197;28;20667;-44
2023/07/10 08:37:05;;;;;;;12.57;6.60;;;;;;;;;;5102301;27;20386;-44
2023/07/10 08:39:30;;;;;;;8.43;5.50;;;;;;;;;;5084215;28;20301;-44
2023/07/10 08:42:03;;;;;;;10.17;5.77;;;;;;;;;;5094811;27;21551;-44
2023/07/10 08:44:37;;;;;;;9.75;6.20;;;;;;;;;;5101164;27;20118;-44
2023/07/10 08:47:23;;;;;;;9.32;5.40;;;;;;;;;;5093399;27;20106;-44
2023/07/10 08:49:54;;;;;;;12.48;7.93;;;;;;;;;;5097241;28;20076;-44
2023/07/10 08:52:40;;;;;;;11.63;7.55;;;;;;;;;;5103273;28;20442;-44
2023/07/10 08:55:13;;;;;;;8.30;4.88;;;;;;;;;;5104140;28;20107;-44
2023/07/10 08:57:42;;;;;;;8.30;5.43;;;;;;;;;;5094006;28;20096;-44
2023/07/10 09:00:09;;;;;;;9.30;5.65;;;;;;;;;;5095929;28;20024;-44
2023/07/10 09:02:40;;;;;;;7.32;5.05;;;;;;;;;;5087950;28;20024;-44
2023/07/10 09:05:07;;;;;;;12.70;5.45;;;;;;;;;;5094465;28;20077;-44
2023/07/10 09:07:38;;;;;;;11.10;6.90;;;;;;;;;;5106527;28;20019;-44
2023/07/10 09:10:05;;;;;;;9.37;6.10;;;;;;;;;;5103907;28;20481;-44
2023/07/10 09:12:39;;;;;;;9.65;6.30;;;;;;;;;;5100303;28;20326;-44
2023/07/10 09:15:11;;;;;;;10.07;6.03;;;;;;;;;;5089546;28;20020;-46
2023/07/10 09:17:49;;;;;;;8.18;5.75;;;;;;;;;;5100208;28;21044;-45
2023/07/10 09:20:15;;;;;;;11.98;5.88;;;;;;;;;;5102368;27;20019;-44
2023/07/10 09:22:47;;;;;;;7.40;5.45;;;;;;;;;;5108188;28;20049;-44
2023/07/10 09:25:13;;;;;;;7.80;5.55;;;;;;;;;;5104029;28;20022;-44
2023/07/10 09:27:42;;;;;;;11.13;5.63;;;;;;;;;;5101530;28;20016;-44
2023/07/10 09:30:28;;;;;;;11.80;5.00;;;;;;;;;;5106193;28;20559;-45
2023/07/10 09:33:00;;;;;;;10.98;5.32;;;;;;;;;;5095165;27;20035;-44
2023/07/10 09:35:26;;;;;;;7.50;5.40;;;;;;;;;;5103608;28;20051;-45
2023/07/10 09:37:51;;;;;;;9.05;4.80;;;;;;;;;;5105269;27;20094;-44
2023/07/10 09:40:35;;;;;;;7.27;5.00;;;;;;;;;;5102132;27;20023;-43
2023/07/10 09:43:05;;;;;;;9.73;5.47;;;;;;;;;;5103810;27;20277;-44
2023/07/10 09:45:31;;;;;;;10.82;5.68;;;;;;;;;;5103730;27;20035;-44
2023/07/10 09:47:56;;;;;;;6.90;4.20;;;;;;;;;;5086918;27;20031;-44
2023/07/10 09:50:22;;;;;;;8.87;3.77;;;;;;;;;;5104933;28;20015;-44
2023/07/10 09:52:55;;;;;;;8.03;3.70;;;;;;;;;;5104109;27;20048;-44
2023/07/10 09:55:22;;;;;;;7.60;4.50;;;;;;;;;;5100286;28;20353;-46
2023/07/10 09:57:47;;;;;;;7.30;4.47;;;;;;;;;;5107536;28;20051;-44
2023/07/10 10:00:15;;;;;;;14.07;4.80;;;;;;;;;;5105986;27;20024;-45
2023/07/10 10:02:43;;;;;;;10.20;4.30;;;;;;;;;;5097112;28;20022;-44
2023/07/10 10:05:08;;;;;;;8.13;4.43;;;;;;;;;;5098761;28;20024;-44
2023/07/10 10:07:38;;;;;;;5.05;3.55;;;;;;;;;;5106058;28;20105;-44
2023/07/10 10:10:17;;;;;;;9.48;4.60;;;;;;;;;;5104610;28;20015;-44
2023/07/10 10:12:44;;;;;;;10.02;4.80;;;;;;;;;;5102322;28;20054;-43
2023/07/10 10:15:15;;;;;;;8.43;5.13;;;;;;;;;;5103570;28;20485;-44
2023/07/10 10:17:42;;;;;;;9.48;6.30;;;;;;;;;;5108006;27;20042;-46
2023/07/10 10:20:28;;;;;;;7.72;5.03;;;;;;;;;;5099935;27;20028;-45
2023/07/10 10:22:53;;;;;;;6.70;3.70;;;;;;;;;;5094359;27;20041;-44
2023/07/10 10:25:23;;;;;;;7.57;4.53;;;;;;;;;;5096541;28;20030;-44
2023/07/10 10:27:49;;;;;;;8.18;6.13;;;;;;;;;;5103689;27;20034;-46
2023/07/10 10:30:17;;;;;;;10.87;5.27;;;;;;;;;;5088636;28;20027;-44
2023/07/10 10:32:54;;;;;;;6.78;4.47;;;;;;;;;;5091004;28;20015;-45
2023/07/10 10:35:49;;;;;;;7.55;4.22;;;;;;;;;;5092242;27;20385;-45
2023/07/10 10:38:14;;;;;;;4.75;2.65;;;;;;;;;;5086681;28;21430;-45
2023/07/10 10:40:49;;;;;;;7.90;4.28;;;;;;;;;;5084443;28;20028;-45
2023/07/10 10:43:20;;;;;;;5.05;3.50;;;;;;;;;;5092754;28;20092;-45
2023/07/10 10:45:50;;;;;;;7.22;4.28;;;;;;;;;;5093392;27;20016;-45
2023/07/10 10:48:28;;;;;;;6.13;4.47;;;;;;;;;;5091546;28;20477;-45
2023/07/10 10:50:54;;;;;;;11.15;5.13;;;;;;;;;;5099270;28;20110;-45
2023/07/10 10:53:25;;;;;;;12.23;5.30;;;;;;;;;;5090780;27;20099;-45
2023/07/10 10:56:05;;;;;;;8.80;4.50;;;;;;;;;;5085894;28;20028;-45
2023/07/10 10:58:37;;;;;;;9.50;5.05;;;;;;;;;;5098440;28;20023;-45
2023/07/10 11:01:37;;;;;;;6.43;4.20;;;;;;;;;;5091719;27;21136;-45
2023/07/10 11:04:10;;;;;;;6.72;4.65;;;;;;;;;;5037685;28;20041;-45
2023/07/10 11:06:44;;;;;;;8.68;4.63;;;;;;;;;;5079897;28;20035;-45
2023/07/10 11:09:27;;;;;;;8.50;5.00;;;;;;;;;;5094939;28;20028;-45
2023/07/10 11:11:53;;;;;;;8.23;4.60;;;;;;;;;;5092258;28;20024;-45
2023/07/10 11:14:19;;;;;;;7.13;4.35;;;;;;;;;;5093146;28;20039;-45
2023/07/10 11:16:44;;;;;;;8.38;4.75;;;;;;;;;;5093688;28;20032;-45
2023/07/10 11:19:17;;;;;;;7.10;5.15;;;;;;;;;;5091209;28;20556;-45
2023/07/10 11:21:43;;;;;;;7.40;4.75;;;;;;;;;;5075738;28;20023;-45
2023/07/10 11:24:23;;;;;;;7.23;4.87;;;;;;;;;;5087711;27;20101;-45
2023/07/10 11:26:50;;;;;;;11.38;4.88;;;;;;;;;;5095313;28;20261;-45
2023/07/10 11:29:19;;;;;;;6.60;4.10;;;;;;;;;;5093824;28;20695;-45
2023/07/10 11:31:49;;;;;;;8.68;4.00;;;;;;;;;;5085766;28;20016;-45
2023/07/10 11:34:15;;;;;;;10.13;5.03;;;;;;;;;;5090128;27;20015;-45
2023/07/10 11:36:41;;;;;;;8.33;4.00;;;;;;;;;;5089668;28;20035;-45
2023/07/10 11:39:08;;;;;;;7.30;3.90;;;;;;;;;;5090646;28;20360;-45
2023/07/10 11:41:54;;;;;;;7.82;4.43;;;;;;;;;;5088693;27;20487;-45
2023/07/10 11:44:22;;;;;;;11.57;6.35;;;;;;;;;;5087912;27;20394;-45
2023/07/10 11:46:53;;;;;;;9.05;6.15;;;;;;;;;;5096206;28;20020;-45
2023/07/10 11:49:19;;;;;;;8.93;4.63;;;;;;;;;;5097530;28;20026;-45
2023/07/10 11:52:04;;;;;;;5.68;3.85;;;;;;;;;;5092409;27;20027;-45
2023/07/10 11:54:33;;;;;;;7.55;4.35;;;;;;;;;;5095712;27;20386;-45
2023/07/10 11:57:04;;;;;;;6.00;4.47;;;;;;;;;;5095996;28;20027;-45
2023/07/10 11:59:29;;;;;;;5.72;3.95;;;;;;;;;;5091429;28;20458;-45
2023/07/10 12:01:55;;;;;;;10.05;4.25;;;;;;;;;;5089295;28;20521;-45
2023/07/10 12:04:22;;;;;;;8.90;4.13;;;;;;;;;;5089052;28;20028;-45
2023/07/10 12:06:48;;;;;;;10.18;4.45;;;;;;;;;;5091551;27;20024;-45
2023/07/10 12:09:13;;;;;;;8.85;5.25;;;;;;;;;;5094275;27;20403;-45
2023/07/10 12:11:39;;;;;;;8.07;4.47;;;;;;;;;;5093875;28;20520;-45
2023/07/10 12:14:08;;;;;;;9.98;4.80;;;;;;;;;;5086248;27;20273;-45
2023/07/10 12:16:37;;;;;;;8.25;3.63;;;;;;;;;;5093162;28;20024;-45
2023/07/10 12:19:12;;;;;;;6.78;4.13;;;;;;;;;;5085375;28;20542;-45
2023/07/10 12:21:37;;;;;;;6.68;4.80;;;;;;;;;;5080461;28;22227;-45
2023/07/10 12:24:02;;;;;;;8.20;4.38;;;;;;;;;;5087530;28;20478;-45
2023/07/10 12:26:28;;;;;;;7.10;4.72;;;;;;;;;;5089757;28;20104;-45
2023/07/10 12:28:54;;;;;;;10.77;4.97;;;;;;;;;;5086681;28;20027;-45
2023/07/10 12:31:19;;;;;;;10.48;4.95;;;;;;;;;;5094357;28;20111;-45
2023/07/10 12:33:49;;;;;;;9.57;4.60;;;;;;;;;;5097678;28;20066;-45
2023/07/10 12:36:20;;;;;;;6.80;4.68;;;;;;;;;;5102509;27;20390;-45
2023/07/10 12:38:45;;;;;;;;;;;;;;;;;;5099636;27;20025;-45
2023/07/10 12:41:11;;;;;;;6.17;3.90;;;;;;;;;;5097961;27;19915;-45
2023/07/10 12:43:36;;;;;;;8.73;4.53;;;;;;;;;;5094324;28;20332;-45
2023/07/10 12:46:04;;;;;;;10.50;4.90;;;;;;;;;;5093928;28;20669;-46
2023/07/10 12:48:31;;;;;;;7.78;4.13;;;;;;;;;;5101523;28;20497;-46
2023/07/10 12:50:57;;;;;;;7.75;3.90;;;;;;;;;;5098746;28;20051;-46
2023/07/10 12:53:24;;;;;;;10.02;4.97;;;;;;;;;;5099628;28;20469;-45
2023/07/10 12:55:54;;;;;;;10.30;5.10;;;;;;;;;;5102381;28;20694;-45
2023/07/10 12:58:21;;;;;;;8.20;5.28;;;;;;;;;;5102634;28;20036;-45
2023/07/10 13:00:47;;;;;;;6.97;4.93;;;;;;;;;;5098921;28;20020;-45
2023/07/10 13:03:27;;;;;;;7.00;5.03;;;;;;;;;;5095521;27;20054;-45
2023/07/10 13:06:04;;;;;;;8.93;5.10;;;;;;;;;;5088573;28;20040;-45
2023/07/10 13:08:37;;;;;;;7.22;5.13;;;;;;;;;;5097089;28;20019;-45
2023/07/10 13:11:02;;;;;;;7.80;4.82;;;;;;;;;;5089190;28;20032;-45
2023/07/10 13:13:30;;;;;;;10.35;5.28;;;;;;;;;;5091654;28;20024;-45
2023/07/10 13:15:58;;;;;;;7.82;5.38;;;;;;;;;;5093155;28;20035;-45
2023/07/10 13:18:24;;;;;;;7.68;5.22;;;;;;;;;;5098867;28;20089;-45
2023/07/10 13:20:50;;;;;;;8.68;5.18;;;;;;;;;;5091702;28;20043;-45
2023/07/10 13:23:16;;;;;;;8.65;5.43;;;;;;;;;;5080949;28;20024;-45
2023/07/10 13:25:41;;;;;;;11.05;5.40;;;;;;;;;;5088711;28;20015;-45
2023/07/10 13:28:16;;;;;;;5.53;3.65;;;;;;;;;;5095059;28;20533;-45
2023/07/10 13:30:41;;;;;;;9.02;5.18;;;;;;;;;;5099281;28;20087;-45
2023/07/10 13:33:17;;;;;;;8.37;5.30;;;;;;;;;;5087025;28;20098;-45
2023/07/10 13:35:42;;;;;;;10.20;5.13;;;;;;;;;;5098560;28;20111;-45
2023/07/10 13:38:10;;;;;;;9.70;6.05;;;;;;;;;;5090789;28;20106;-45
2023/07/10 13:40:36;;;;;;;10.20;5.38;;;;;;;;;;5096082;28;20023;-45
2023/07/10 13:43:01;;;;;;;7.93;5.77;;;;;;;;;;5095799;28;20038;-45
2023/07/10 13:45:26;;;;;;;11.93;5.60;;;;;;;;;;5103967;28;20020;-45
2023/07/10 13:47:52;;;;;;;9.30;5.60;;;;;;;;;;5099786;28;20028;-45
2023/07/10 13:50:17;;;;;;;9.73;4.97;;;;;;;;;;5089666;28;20023;-45
2023/07/10 13:52:42;;;;;;;10.33;6.60;;;;;;;;;;5098201;28;20045;-45
2023/07/10 13:55:11;;;;;;;17.45;7.00;;;;;;;;;;5086460;28;20027;-45
2023/07/10 13:57:36;;;;;;;16.45;7.95;;;;;;;;;;5095900;28;20012;-50
2023/07/10 14:00:02;;;;;;;14.37;8.40;;;;;;;;;;5096646;28;20385;-46
2023/07/10 14:02:35;;;;;;;17.80;9.80;;;;;;;;;;5102704;28;20068;-46
2023/07/10 14:05:02;;;;;;;18.73;9.80;;;;;;;;;;5103649;28;20039;-46
2023/07/10 14:07:29;;;;;;;14.40;9.15;;;;;;;;;;5105674;28;20019;-46
2023/07/10 14:09:58;;;;;;;17.63;9.27;;;;;;;;;;5098430;27;20023;-46
2023/07/10 14:12:24;;;;;;;9.60;6.25;;;;;;;;;;5092952;27;20076;-45
2023/07/10 14:14:49;;;;;;;15.38;8.90;;;;;;;;;;5105824;28;20030;-45
2023/07/10 14:17:41;;;;;;;15.00;8.90;;;;;;;;;;5096667;27;20028;-44
2023/07/10 14:20:14;;;;;;;18.83;10.80;;;;;;;;;;5101237;27;20581;-44
2023/07/10 14:22:39;;;;;;;15.13;9.02;;;;;;;;;;5099752;28;20040;-43
2023/07/10 14:25:04;;;;;;;12.40;8.23;;;;;;;;;;5093891;27;20138;-43
2023/07/10 14:27:30;;;;;;;11.65;8.18;;;;;;;;;;5097297;27;20265;-42
2023/07/10 14:29:58;;;;;;;16.00;8.70;;;;;;;;;;5104040;27;20439;-42
2023/07/10 14:32:24;;;;;;;15.52;8.38;;;;;;;;;;5090589;27;20297;-42
2023/07/10 14:34:50;;;;;;;6.80;4.47;;;;;;;;;;5093371;27;20051;-43
2023/07/10 14:37:16;;;;;;;10.63;6.45;;;;;;;;;;5102839;28;20051;-44
2023/07/10 14:39:42;;;;;;;14.18;7.18;;;;;;;;;;5110041;28;20027;-43
2023/07/10 14:42:15;;;;;;;12.93;7.63;;;;;;;;;;5105533;28;20389;-43